createdAt,value
2019-06-01T00:01:16.740Z,100.00
2019-06-01T00:03:46.359Z,100.00
2019-06-01T00:06:15.219Z,100.00
2019-06-01T00:08:45.008Z,100.00
2019-06-01T00:11:13.769Z,100.00
2019-06-01T00:13:43.393Z,100.00
2019-06-01T00:16:12.152Z,100.00
2019-06-01T00:18:41.781Z,100.00
2019-06-01T00:21:10.418Z,100.00
2019-06-01T00:23:40.287Z,100.00
2019-06-01T00:26:08.963Z,100.00
2019-06-01T00:28:37.404Z,100.00
2019-06-01T00:31:05.829Z,100.00
2019-06-01T00:33:34.258Z,100.00
2019-06-01T00:36:02.702Z,100.00
2019-06-01T00:38:31.146Z,100.00
2019-06-01T00:40:59.578Z,100.00
2019-06-01T00:43:28.073Z,100.00
2019-06-01T00:45:56.507Z,100.00
2019-06-01T00:48:24.940Z,100.00
2019-06-01T00:50:53.391Z,100.00
2019-06-01T00:53:21.891Z,100.00
2019-06-01T00:55:51.488Z,100.00
2019-06-01T00:58:20.071Z,100.00
2019-06-01T01:00:49.446Z,100.00
2019-06-01T01:03:18.665Z,100.00
2019-06-01T01:05:47.239Z,100.00
2019-06-01T01:08:16.938Z,100.00
2019-06-01T01:10:45.379Z,100.00
2019-06-01T01:13:18.159Z,100.00
2019-06-01T01:15:47.255Z,100.00
2019-06-01T01:18:16.091Z,100.00
2019-06-01T01:20:45.748Z,100.00
2019-06-01T01:23:14.675Z,100.00
2019-06-01T01:25:43.112Z,100.00
2019-06-01T01:28:11.561Z,100.00
2019-06-01T01:30:40.861Z,100.00
2019-06-01T01:33:09.295Z,100.00
2019-06-01T01:35:37.822Z,100.00
2019-06-01T01:38:06.326Z,100.00
2019-06-01T01:40:34.829Z,100.00
2019-06-01T01:43:03.412Z,100.00
2019-06-01T01:45:31.832Z,100.00
2019-06-01T01:48:01.412Z,100.00
2019-06-01T01:50:30.331Z,100.00
2019-06-01T01:52:59.075Z,100.00
2019-06-01T01:55:27.548Z,100.00
2019-06-01T01:57:57.526Z,100.00
2019-06-01T02:00:38.329Z,100.00
2019-06-01T02:03:07.521Z,100.00
2019-06-01T02:05:35.960Z,100.00
2019-06-01T02:08:05.669Z,100.00
2019-06-01T02:10:34.175Z,100.00
2019-06-01T02:13:02.613Z,100.00
2019-06-01T02:15:31.202Z,100.00
2019-06-01T02:18:00.560Z,100.00
2019-06-01T02:20:29.535Z,100.00
2019-06-01T02:22:58.915Z,100.00
2019-06-01T02:25:27.618Z,100.00
2019-06-01T02:27:57.346Z,100.00
2019-06-01T02:30:26.167Z,100.00
2019-06-01T02:32:56.301Z,100.00
2019-06-01T02:35:24.798Z,100.00
2019-06-01T02:37:54.685Z,100.00
2019-06-01T02:40:25.628Z,100.00
2019-06-01T02:42:55.010Z,100.00
2019-06-01T02:45:23.825Z,100.00
2019-06-01T02:47:52.275Z,100.00
2019-06-01T02:50:21.148Z,100.00
2019-06-01T02:52:49.588Z,100.00
2019-06-01T02:55:20.847Z,100.00
2019-06-01T02:57:49.290Z,100.00
2019-06-01T03:00:20.580Z,100.00
2019-06-01T03:02:49.141Z,100.00
2019-06-01T03:05:18.896Z,100.00
2019-06-01T03:07:49.216Z,100.00
2019-06-01T03:10:17.801Z,100.00
2019-06-01T03:12:47.024Z,100.00
2019-06-01T03:15:17.182Z,100.00
2019-06-01T03:17:48.124Z,100.00
2019-06-01T03:20:18.093Z,100.00
2019-06-01T03:22:49.571Z,100.00
2019-06-01T03:25:18.088Z,100.00
2019-06-01T03:27:49.905Z,100.00
2019-06-01T03:30:24.167Z,100.00
2019-06-01T03:32:52.598Z,100.00
2019-06-01T03:35:21.108Z,100.00
2019-06-01T03:37:50.020Z,100.00
2019-06-01T03:40:23.689Z,100.00
2019-06-01T03:42:48.627Z,100.00
2019-06-01T03:45:17.511Z,100.00
2019-06-01T03:47:46.019Z,100.00
2019-06-01T03:50:14.535Z,100.00
2019-06-01T03:52:42.986Z,100.00
2019-06-01T03:55:12.030Z,100.00
2019-06-01T03:57:40.552Z,100.00
2019-06-01T04:00:09.428Z,100.00
2019-06-01T04:02:38.228Z,100.00
2019-06-01T04:05:07.388Z,100.00
2019-06-01T04:07:38.783Z,100.00
2019-06-01T04:10:08.079Z,100.00
2019-06-01T04:12:36.810Z,100.00
2019-06-01T04:15:11.651Z,100.00
2019-06-01T04:17:38.411Z,100.00
2019-06-01T04:20:08.181Z,100.00
2019-06-01T04:22:36.893Z,100.00
2019-06-01T04:25:06.683Z,100.00
2019-06-01T04:27:35.243Z,100.00
2019-06-01T04:30:04.523Z,100.00
2019-06-01T04:32:48.516Z,100.00
2019-06-01T04:35:04.961Z,100.00
2019-06-01T04:37:33.611Z,100.00
2019-06-01T04:40:03.238Z,100.00
2019-06-01T04:42:31.898Z,100.00
2019-06-01T04:45:00.336Z,100.00
2019-06-01T04:47:28.797Z,100.00
2019-06-01T04:49:57.229Z,100.00
2019-06-01T04:52:25.685Z,100.00
2019-06-01T04:54:54.120Z,100.00
2019-06-01T04:57:22.548Z,100.00
2019-06-01T04:59:50.998Z,100.00
2019-06-01T05:02:19.429Z,100.00
2019-06-01T05:04:47.870Z,100.00
2019-06-01T05:07:16.601Z,100.00
2019-06-01T05:09:45.045Z,100.00
2019-06-01T05:12:13.675Z,100.00
2019-06-01T05:14:42.419Z,100.00
2019-06-01T05:17:12.925Z,100.00
2019-06-01T05:19:41.025Z,100.00
2019-06-01T05:22:10.489Z,100.00
2019-06-01T05:24:38.973Z,100.00
2019-06-01T05:27:07.500Z,100.00
2019-06-01T05:29:36.003Z,100.00
2019-06-01T05:32:04.567Z,100.00
2019-06-01T05:34:33.006Z,100.00
2019-06-01T05:37:01.448Z,100.00
2019-06-01T05:39:29.892Z,100.00
2019-06-01T05:41:58.391Z,100.00
2019-06-01T05:44:26.792Z,100.00
2019-06-01T05:46:55.338Z,100.00
2019-06-01T05:49:23.838Z,99.35
2019-06-01T05:51:52.296Z,97.36
2019-06-01T05:54:20.763Z,93.49
2019-06-01T05:56:49.202Z,92.19
2019-06-01T05:59:18.238Z,88.86
2019-06-01T06:01:46.801Z,87.58
2019-06-01T06:04:15.416Z,84.68
2019-06-01T06:06:43.865Z,82.27
2019-06-01T06:09:13.314Z,82.11
2019-06-01T06:11:41.923Z,82.55
2019-06-01T06:14:11.468Z,80.56
2019-06-01T06:16:40.179Z,79.14
2019-06-01T06:19:08.623Z,78.60
2019-06-01T06:21:37.042Z,77.02
2019-06-01T06:24:05.649Z,77.87
2019-06-01T06:26:34.163Z,76.95
2019-06-01T06:29:02.659Z,77.90
2019-06-01T06:31:31.153Z,77.44
2019-06-01T06:33:59.595Z,77.64
2019-06-01T06:36:28.042Z,77.86
2019-06-01T06:38:56.465Z,78.06
2019-06-01T06:41:24.887Z,81.64
2019-06-01T06:43:53.330Z,80.20
2019-06-01T06:46:22.812Z,78.65
2019-06-01T06:48:51.367Z,77.12
2019-06-01T06:51:19.805Z,77.62
2019-06-01T06:53:48.253Z,77.91
2019-06-01T06:56:17.804Z,76.45
2019-06-01T06:58:46.321Z,74.92
2019-06-01T07:01:14.786Z,73.46
2019-06-01T07:03:43.213Z,75.51
2019-06-01T07:06:11.681Z,71.05
2019-06-01T07:08:40.134Z,73.79
2019-06-01T07:11:11.770Z,71.80
2019-06-01T07:13:38.733Z,71.44
2019-06-01T07:16:07.179Z,72.85
2019-06-01T07:18:35.604Z,72.95
2019-06-01T07:21:04.194Z,71.02
2019-06-01T07:23:32.638Z,70.33
2019-06-01T07:26:01.076Z,68.43
2019-06-01T07:28:29.528Z,66.15
2019-06-01T07:30:57.946Z,67.70
2019-06-01T07:33:26.539Z,66.09
2019-06-01T07:35:54.911Z,65.29
2019-06-01T07:38:24.518Z,65.02
2019-06-01T07:40:53.370Z,63.69
2019-06-01T07:43:22.619Z,63.26
2019-06-01T07:45:51.093Z,64.33
2019-06-01T07:48:20.855Z,64.82
2019-06-01T07:50:49.654Z,63.43
2019-06-01T07:53:18.096Z,63.79
2019-06-01T07:55:46.521Z,62.41
2019-06-01T07:58:14.938Z,62.42
2019-06-01T08:00:43.515Z,63.66
2019-06-01T08:03:11.950Z,63.52
2019-06-01T08:05:40.371Z,65.21
2019-06-01T08:08:08.815Z,65.36
2019-06-01T08:10:37.242Z,66.12
2019-06-01T08:13:05.764Z,67.77
2019-06-01T08:15:34.186Z,67.94
2019-06-01T08:18:02.618Z,66.91
2019-06-01T08:20:32.240Z,69.00
2019-06-01T08:23:00.773Z,65.08
2019-06-01T08:25:30.619Z,66.28
2019-06-01T08:27:59.137Z,67.62
2019-06-01T08:30:28.653Z,66.30
2019-06-01T08:32:57.350Z,66.77
2019-06-01T08:35:26.918Z,67.49
2019-06-01T08:37:55.679Z,67.50
2019-06-01T08:40:25.258Z,67.26
2019-06-01T08:42:53.905Z,66.11
2019-06-01T08:45:23.531Z,67.47
2019-06-01T08:47:52.243Z,67.46
2019-06-01T08:50:20.743Z,66.20
2019-06-01T08:52:49.183Z,67.72
2019-06-01T08:55:17.706Z,68.02
2019-06-01T08:57:46.122Z,67.56
2019-06-01T09:00:15.091Z,65.55
2019-06-01T09:02:43.531Z,66.00
2019-06-01T09:05:23.999Z,67.88
2019-06-01T09:07:42.793Z,65.68
2019-06-01T09:10:11.772Z,65.80
2019-06-01T09:12:40.188Z,65.31
2019-06-01T09:15:09.581Z,65.64
2019-06-01T09:17:38.890Z,67.24
2019-06-01T09:20:07.850Z,64.87
2019-06-01T09:22:36.311Z,64.17
2019-06-01T09:25:06.067Z,64.83
2019-06-01T09:27:34.482Z,63.93
2019-06-01T09:30:03.166Z,63.49
2019-06-01T09:32:32.184Z,65.84
2019-06-01T09:35:00.990Z,63.26
2019-06-01T09:37:30.551Z,64.26
2019-06-01T09:39:59.236Z,63.53
2019-06-01T09:42:28.739Z,65.78
2019-06-01T09:44:57.297Z,64.27
2019-06-01T09:47:26.966Z,61.11
2019-06-01T09:49:55.900Z,61.71
2019-06-01T09:52:24.330Z,62.17
2019-06-01T09:54:52.757Z,66.34
2019-06-01T09:57:21.200Z,63.72
2019-06-01T09:59:49.612Z,62.89
2019-06-01T10:02:18.058Z,63.29
2019-06-01T10:04:46.473Z,64.63
2019-06-01T10:07:14.920Z,62.04
2019-06-01T10:09:43.386Z,61.16
2019-06-01T10:12:11.813Z,61.51
2019-06-01T10:14:40.265Z,62.18
2019-06-01T10:17:08.687Z,64.16
2019-06-01T10:19:37.106Z,61.67
2019-06-01T10:22:05.654Z,61.26
2019-06-01T10:24:35.095Z,61.85
2019-06-01T10:27:03.935Z,63.15
2019-06-01T10:29:32.630Z,63.80
2019-06-01T10:32:01.372Z,63.18
2019-06-01T10:34:29.792Z,61.46
2019-06-01T10:36:58.224Z,61.84
2019-06-01T10:39:26.676Z,62.34
2019-06-01T10:41:55.180Z,64.32
2019-06-01T10:44:23.619Z,63.05
2019-06-01T10:46:52.043Z,60.57
2019-06-01T10:49:20.486Z,62.60
2019-06-01T10:51:48.897Z,61.22
2019-06-01T10:54:17.332Z,62.42
2019-06-01T10:56:45.745Z,62.78
2019-06-01T10:59:14.157Z,62.43
2019-06-01T11:01:42.832Z,61.57
2019-06-01T11:04:11.594Z,59.49
2019-06-01T11:06:45.155Z,59.74
2019-06-01T11:09:10.483Z,58.12
2019-06-01T11:11:39.152Z,58.42
2019-06-01T11:14:07.896Z,61.39
2019-06-01T11:16:37.315Z,60.33
2019-06-01T11:19:05.966Z,61.25
2019-06-01T11:21:35.532Z,59.99
2019-06-01T11:24:04.634Z,59.27
2019-06-01T11:26:33.340Z,61.52
2019-06-01T11:29:01.781Z,60.01
2019-06-01T11:31:30.226Z,60.21
2019-06-01T11:33:58.673Z,58.66
2019-06-01T11:36:27.123Z,60.18
2019-06-01T11:38:55.547Z,59.55
2019-06-01T11:41:24.051Z,59.30
2019-06-01T11:43:52.518Z,61.53
2019-06-01T11:46:20.958Z,60.91
2019-06-01T11:48:49.386Z,59.43
2019-06-01T11:51:17.837Z,60.83
2019-06-01T11:53:46.260Z,59.88
2019-06-01T11:56:14.769Z,62.14
2019-06-01T11:58:43.434Z,61.19
2019-06-01T12:01:12.002Z,61.68
2019-06-01T12:03:41.726Z,57.66
2019-06-01T12:06:10.248Z,58.96
2019-06-01T12:08:39.881Z,58.77
2019-06-01T12:11:08.572Z,61.14
2019-06-01T12:13:38.084Z,58.93
2019-06-01T12:16:06.838Z,59.50
2019-06-01T12:18:36.361Z,60.18
2019-06-01T12:21:05.256Z,57.47
2019-06-01T12:23:33.663Z,59.19
2019-06-01T12:26:02.068Z,57.71
2019-06-01T12:28:30.573Z,58.19
2019-06-01T12:30:58.991Z,57.68
2019-06-01T12:33:27.468Z,58.36
2019-06-01T12:35:55.913Z,58.11
2019-06-01T12:38:24.364Z,58.90
2019-06-01T12:40:52.782Z,58.10
2019-06-01T12:43:21.202Z,58.94
2019-06-01T12:46:05.466Z,59.56
2019-06-01T12:48:19.787Z,59.99
2019-06-01T12:50:50.748Z,58.61
2019-06-01T12:53:18.376Z,59.27
2019-06-01T12:55:46.831Z,60.13
2019-06-01T12:58:15.237Z,57.61
2019-06-01T13:00:44.222Z,57.36
2019-06-01T13:03:12.807Z,58.04
2019-06-01T13:05:41.569Z,57.36
2019-06-01T13:08:10.150Z,56.43
2019-06-01T13:10:38.573Z,55.49
2019-06-01T13:13:07.000Z,56.11
2019-06-01T13:15:35.425Z,56.14
2019-06-01T13:18:03.922Z,57.73
2019-06-01T13:20:32.340Z,58.52
2019-06-01T13:23:00.762Z,57.59
2019-06-01T13:25:29.201Z,58.33
2019-06-01T13:27:57.611Z,56.20
2019-06-01T13:30:26.041Z,57.34
2019-06-01T13:32:54.464Z,57.21
2019-06-01T13:35:22.898Z,56.83
2019-06-01T13:38:10.383Z,57.46
2019-06-01T13:40:21.562Z,55.95
2019-06-01T13:42:51.116Z,56.23
2019-06-01T13:45:19.991Z,56.41
2019-06-01T13:47:49.763Z,56.49
2019-06-01T13:50:18.654Z,55.40
2019-06-01T13:52:48.015Z,57.36
2019-06-01T13:55:16.828Z,56.11
2019-06-01T13:57:46.276Z,55.20
2019-06-01T14:00:17.171Z,54.09
2019-06-01T14:02:49.613Z,54.51
2019-06-01T14:05:15.485Z,53.95
2019-06-01T14:07:45.311Z,54.29
2019-06-01T14:10:14.640Z,54.94
2019-06-01T14:12:43.072Z,55.19
2019-06-01T14:15:12.917Z,54.66
2019-06-01T14:17:41.358Z,53.92
2019-06-01T14:20:10.020Z,52.52
2019-06-01T14:22:38.437Z,52.73
2019-06-01T14:25:14.100Z,52.51
2019-06-01T14:27:38.524Z,52.01
2019-06-01T14:30:09.318Z,51.42
2019-06-01T14:32:38.350Z,51.10
2019-06-01T14:35:09.750Z,50.79
2019-06-01T14:37:38.238Z,51.56
2019-06-01T14:40:07.231Z,52.66
2019-06-01T14:42:35.647Z,53.54
2019-06-01T14:45:06.702Z,52.74
2019-06-01T14:47:35.123Z,52.25
2019-06-01T14:50:07.449Z,52.71
2019-06-01T14:52:36.385Z,53.85
2019-06-01T14:55:07.707Z,52.67
2019-06-01T14:57:36.127Z,52.56
2019-06-01T15:00:06.878Z,51.39
2019-06-01T15:02:35.294Z,51.36
2019-06-01T15:05:05.805Z,51.89
2019-06-01T15:07:34.224Z,51.52
2019-06-01T15:10:03.017Z,51.42
2019-06-01T15:12:31.444Z,51.09
2019-06-01T15:14:59.850Z,51.60
2019-06-01T15:17:28.264Z,53.03
2019-06-01T15:19:56.683Z,53.07
2019-06-01T15:22:25.109Z,53.16
2019-06-01T15:24:54.246Z,54.15
2019-06-01T15:27:22.735Z,53.64
2019-06-01T15:29:51.139Z,54.17
2019-06-01T15:32:19.598Z,54.22
2019-06-01T15:34:48.010Z,52.93
2019-06-01T15:37:16.449Z,51.97
2019-06-01T15:39:44.874Z,51.84
2019-06-01T15:42:13.294Z,52.23
2019-06-01T15:44:41.725Z,53.24
2019-06-01T15:47:10.160Z,53.40
2019-06-01T15:49:38.584Z,53.31
2019-06-01T15:52:07.020Z,53.51
2019-06-01T15:54:35.442Z,51.71
2019-06-01T15:57:03.929Z,51.28
2019-06-01T15:59:32.352Z,53.36
2019-06-01T16:02:01.326Z,52.59
2019-06-01T16:04:29.945Z,53.73
2019-06-01T16:06:59.242Z,53.42
2019-06-01T16:09:42.046Z,53.55
2019-06-01T16:11:59.498Z,54.33
2019-06-01T16:14:28.129Z,54.13
2019-06-01T16:16:57.855Z,53.94
2019-06-01T16:19:26.668Z,53.90
2019-06-01T16:21:55.830Z,54.85
2019-06-01T16:24:24.394Z,53.66
2019-06-01T16:26:54.139Z,52.60
2019-06-01T16:29:22.730Z,51.94
2019-06-01T16:31:51.153Z,52.36
2019-06-01T16:34:19.585Z,53.31
2019-06-01T16:36:48.021Z,52.33
2019-06-01T16:39:16.448Z,53.04
2019-06-01T16:41:44.882Z,53.20
2019-06-01T16:44:13.350Z,51.83
2019-06-01T16:46:41.793Z,51.46
2019-06-01T16:49:10.217Z,52.12
2019-06-01T16:51:56.640Z,51.41
2019-06-01T16:54:25.671Z,52.14
2019-06-01T16:56:55.927Z,51.83
2019-06-01T16:59:24.608Z,51.79
2019-06-01T17:01:53.023Z,51.86
2019-06-01T17:04:21.528Z,52.04
2019-06-01T17:06:49.957Z,52.37
2019-06-01T17:09:18.414Z,53.34
2019-06-01T17:11:46.924Z,52.74
2019-06-01T17:14:15.345Z,53.13
2019-06-01T17:16:43.845Z,53.04
2019-06-01T17:19:12.258Z,53.59
2019-06-01T17:21:40.756Z,52.37
2019-06-01T17:24:09.235Z,52.47
2019-06-01T17:26:37.653Z,53.17
2019-06-01T17:29:06.234Z,54.02
2019-06-01T17:31:34.723Z,53.87
2019-06-01T17:34:04.534Z,53.71
2019-06-01T17:36:33.225Z,53.23
2019-06-01T17:39:02.057Z,53.27
2019-06-01T17:41:30.555Z,53.44
2019-06-01T17:43:58.967Z,53.99
2019-06-01T17:46:27.465Z,53.73
2019-06-01T17:48:55.904Z,54.05
2019-06-01T17:51:24.394Z,54.18
2019-06-01T17:53:53.493Z,54.67
2019-06-01T17:56:22.111Z,55.18
2019-06-01T17:58:50.555Z,55.09
2019-06-01T18:01:18.944Z,55.34
2019-06-01T18:03:47.361Z,55.80
2019-06-01T18:06:15.819Z,56.45
2019-06-01T18:08:44.225Z,56.30
2019-06-01T18:11:12.659Z,56.31
2019-06-01T18:13:41.157Z,56.63
2019-06-01T18:16:10.377Z,57.14
2019-06-01T18:18:39.080Z,57.30
2019-06-01T18:21:08.392Z,57.66
2019-06-01T18:23:37.025Z,57.83
2019-06-01T18:26:06.779Z,57.80
2019-06-01T18:28:35.624Z,58.10
2019-06-01T18:31:04.550Z,58.52
2019-06-01T18:33:33.400Z,59.03
2019-06-01T18:36:01.825Z,59.24
2019-06-01T18:38:30.265Z,59.77
2019-06-01T18:41:09.233Z,60.13
2019-06-01T18:43:29.033Z,60.42
2019-06-01T18:45:58.396Z,60.51
2019-06-01T18:48:26.818Z,60.83
2019-06-01T18:50:55.256Z,61.02
2019-06-01T18:53:23.734Z,61.29
2019-06-01T18:55:53.855Z,60.87
2019-06-01T18:58:22.423Z,60.94
2019-06-01T19:00:50.847Z,60.95
2019-06-01T19:03:19.265Z,61.43
2019-06-01T19:05:47.774Z,62.54
2019-06-01T19:08:16.415Z,62.98
2019-06-01T19:10:45.573Z,63.18
2019-06-01T19:13:14.072Z,63.59
2019-06-01T19:15:42.583Z,64.02
2019-06-01T19:18:12.514Z,64.39
2019-06-01T19:20:41.104Z,65.36
2019-06-01T19:23:10.657Z,65.66
2019-06-01T19:25:39.397Z,65.61
2019-06-01T19:28:08.850Z,66.29
2019-06-01T19:30:40.060Z,66.07
2019-06-01T19:33:11.848Z,65.90
2019-06-01T19:35:39.948Z,67.07
2019-06-01T19:38:09.146Z,66.82
2019-06-01T19:40:39.344Z,66.80
2019-06-01T19:43:09.545Z,67.09
2019-06-01T19:45:38.284Z,66.98
2019-06-01T19:48:08.308Z,67.47
2019-06-01T19:50:37.108Z,67.73
2019-06-01T19:53:05.663Z,68.13
2019-06-01T19:55:34.354Z,69.28
2019-06-01T19:58:02.862Z,69.77
2019-06-01T20:00:31.418Z,70.14
2019-06-01T20:02:59.831Z,70.26
2019-06-01T20:05:28.420Z,71.04
2019-06-01T20:07:56.860Z,71.48
2019-06-01T20:10:25.287Z,71.47
2019-06-01T20:12:53.704Z,71.69
2019-06-01T20:15:23.666Z,72.00
2019-06-01T20:17:52.087Z,72.32
2019-06-01T20:20:21.451Z,72.49
2019-06-01T20:22:49.857Z,72.85
2019-06-01T20:25:19.487Z,73.50
2019-06-01T20:27:47.934Z,73.92
2019-06-01T20:30:17.702Z,73.77
2019-06-01T20:32:46.382Z,74.04
2019-06-01T20:35:16.012Z,74.49
2019-06-01T20:37:44.599Z,75.09
2019-06-01T20:40:14.204Z,75.65
2019-06-01T20:42:42.829Z,76.52
2019-06-01T20:45:12.500Z,77.23
2019-06-01T20:47:41.256Z,77.44
2019-06-01T20:50:10.708Z,78.51
2019-06-01T20:52:39.197Z,79.46
2019-06-01T20:55:09.548Z,80.11
2019-06-01T20:57:38.015Z,80.48
2019-06-01T21:00:13.444Z,81.19
2019-06-01T21:02:42.194Z,81.51
2019-06-01T21:05:11.059Z,81.67
2019-06-01T21:07:39.467Z,81.80
2019-06-01T21:10:09.125Z,82.18
2019-06-01T21:12:44.728Z,82.51
2019-06-01T21:15:08.926Z,83.35
2019-06-01T21:17:37.366Z,84.46
2019-06-01T21:20:09.275Z,84.46
2019-06-01T21:22:38.124Z,84.86
2019-06-01T21:25:07.818Z,85.67
2019-06-01T21:27:36.218Z,86.77
2019-06-01T21:30:07.163Z,86.79
2019-06-01T21:32:35.594Z,87.21
2019-06-01T21:35:05.768Z,88.29
2019-06-01T21:37:34.216Z,88.62
2019-06-01T21:40:02.616Z,89.36
2019-06-01T21:42:31.025Z,89.38
2019-06-01T21:44:59.532Z,89.57
2019-06-01T21:47:27.933Z,89.80
2019-06-01T21:49:56.370Z,90.19
2019-06-01T21:52:24.794Z,90.61
2019-06-01T21:54:53.203Z,91.53
2019-06-01T21:57:22.325Z,91.58
2019-06-01T21:59:50.822Z,91.96
2019-06-01T22:02:19.298Z,91.83
2019-06-01T22:04:47.730Z,92.15
2019-06-01T22:07:17.306Z,92.42
2019-06-01T22:09:45.955Z,92.27
2019-06-01T22:12:14.375Z,92.96
2019-06-01T22:14:42.786Z,93.23
2019-06-01T22:17:11.226Z,93.58
2019-06-01T22:19:39.637Z,93.88
2019-06-01T22:22:08.068Z,93.88
2019-06-01T22:24:36.488Z,93.82
2019-06-01T22:27:05.171Z,93.98
2019-06-01T22:29:33.604Z,94.64
2019-06-01T22:32:02.030Z,95.03
2019-06-01T22:34:30.443Z,94.88
2019-06-01T22:36:58.861Z,95.31
2019-06-01T22:39:27.326Z,95.49
2019-06-01T22:41:55.801Z,95.52
2019-06-01T22:44:24.239Z,95.75
2019-06-01T22:46:52.650Z,96.37
2019-06-01T22:49:21.073Z,96.63
2019-06-01T22:51:49.554Z,96.64
2019-06-01T22:54:17.956Z,96.32
2019-06-01T22:56:46.416Z,95.83
2019-06-01T22:59:14.857Z,95.92
2019-06-01T23:01:43.259Z,95.64
2019-06-01T23:04:11.706Z,95.60
2019-06-01T23:06:40.136Z,95.10
2019-06-01T23:09:09.114Z,95.02
2019-06-01T23:11:44.654Z,94.93
2019-06-01T23:14:13.059Z,94.71
2019-06-01T23:16:41.568Z,95.02
2019-06-01T23:19:09.966Z,94.93
2019-06-01T23:21:38.399Z,94.51
2019-06-01T23:24:06.820Z,94.38
2019-06-01T23:26:35.216Z,94.67
2019-06-01T23:29:03.719Z,94.85
2019-06-01T23:31:32.643Z,94.53
2019-06-01T23:34:01.344Z,94.44
2019-06-01T23:36:30.674Z,95.14
2019-06-01T23:38:59.259Z,95.47
2019-06-01T23:41:28.745Z,94.93
2019-06-01T23:44:11.245Z,95.27
2019-06-01T23:46:27.438Z,95.55
2019-06-01T23:48:55.864Z,95.86
2019-06-01T23:51:25.334Z,96.37
2019-06-01T23:53:53.901Z,96.67
2019-06-01T23:56:23.525Z,96.71
2019-06-01T23:58:52.118Z,96.72
